Time;durP1;ratioP1;P1;durP2;ratioP2;P2;SDS_P1;SDS_P2;PMS_P1;PMS_P2;Temp;Humidity;BMP_temperature;BMP_pressure;BME280_temperature;BME280_humidity;BME280_pressure;Samples;Min_cycle;Max_cycle;Signal;HPM_P1;HPM_P2
2023/09/19 00:00:46;;;;;;;2.00;1.10;;;;;;;19.88;100.00;100275.63;4989409;28;20129;-62
2023/09/19 00:03:12;;;;;;;3.22;0.90;;;;;;;19.88;100.00;100281.72;4990792;28;20487;-62
2023/09/19 00:05:38;;;;;;;6.35;1.30;;;;;;;19.91;100.00;100274.41;4987367;28;20088;-62
2023/09/19 00:08:04;;;;;;;5.15;1.33;;;;;;;19.92;100.00;100279.50;4989593;28;20387;-62
2023/09/19 00:10:31;;;;;;;3.95;1.67;;;;;;;19.95;100.00;100276.44;4990785;28;20377;-63
2023/09/19 00:12:59;;;;;;;3.85;0.90;;;;;;;19.97;100.00;100277.03;4993340;28;20030;-62
2023/09/19 00:15:28;;;;;;;5.03;1.27;;;;;;;19.95;100.00;100273.78;4989927;28;20038;-62
2023/09/19 00:17:54;;;;;;;6.95;1.55;;;;;;;19.94;100.00;100280.09;4984857;28;20091;-63
2023/09/19 00:20:22;;;;;;;6.32;1.60;;;;;;;19.94;100.00;100274.81;4984090;28;20084;-62
2023/09/19 00:22:49;;;;;;;4.22;1.30;;;;;;;19.94;100.00;100280.09;4982695;28;20050;-62
2023/09/19 00:25:15;;;;;;;2.20;1.10;;;;;;;19.93;100.00;100273.19;4986226;28;20030;-62
2023/09/19 00:27:41;;;;;;;4.22;1.42;;;;;;;19.96;100.00;100279.88;4989484;28;20046;-62
2023/09/19 00:30:14;;;;;;;5.13;1.70;;;;;;;19.96;100.00;100279.88;4985917;28;20531;-63
2023/09/19 00:32:40;;;;;;;2.90;1.38;;;;;;;19.96;100.00;100271.94;4986449;28;20038;-63
2023/09/19 00:35:05;;;;;;;4.53;1.27;;;;;;;19.98;100.00;100270.72;4987920;28;20037;-63
2023/09/19 00:37:31;;;;;;;7.32;1.33;;;;;;;19.99;100.00;100276.81;4988573;28;20448;-62
2023/09/19 00:39:56;;;;;;;3.80;1.60;;;;;;;20.01;100.00;100274.78;4986374;28;20425;-62
2023/09/19 00:42:22;;;;;;;3.97;1.35;;;;;;;20.02;100.00;100269.28;4990450;28;20034;-62
2023/09/19 00:44:51;;;;;;;4.15;1.25;;;;;;;20.03;100.00;100267.44;4990173;28;20038;-62
2023/09/19 00:47:17;;;;;;;4.05;1.52;;;;;;;20.04;100.00;100267.22;4984349;28;20040;-62
2023/09/19 00:49:43;;;;;;;3.05;1.70;;;;;;;20.07;100.00;100268.66;4990946;28;20030;-62
2023/09/19 00:52:12;;;;;;;1.98;1.08;;;;;;;20.07;100.00;100271.28;4988098;28;20030;-63
2023/09/19 00:54:37;;;;;;;2.33;0.77;;;;;;;20.07;100.00;100266.81;4981503;28;20038;-62
2023/09/19 00:57:03;;;;;;;3.95;1.42;;;;;;;20.06;100.00;100270.47;4997469;28;20027;-62
2023/09/19 00:59:30;;;;;;;3.60;0.98;;;;;;;20.04;100.00;100261.94;4979516;28;20030;-62
2023/09/19 01:01:56;;;;;;;1.23;0.75;;;;;;;20.03;100.00;100260.31;4982795;28;20417;-62
2023/09/19 01:04:23;;;;;;;2.15;0.90;;;;;;;20.03;100.00;100252.38;4979812;28;20030;-63
2023/09/19 01:06:53;;;;;;;3.15;0.95;;;;;;;20.04;100.00;100259.31;4983282;28;20034;-63
2023/09/19 01:09:20;;;;;;;2.72;1.50;;;;;;;20.04;100.00;100255.84;4979928;28;20119;-63
2023/09/19 01:11:49;;;;;;;4.65;1.38;;;;;;;20.06;100.00;100254.63;4986083;28;20083;-63
2023/09/19 01:14:30;;;;;;;3.10;1.13;;;;;;;20.07;100.00;100252.78;4981653;28;20122;-63
2023/09/19 01:17:23;;;;;;;1.73;1.00;;;;;;;20.07;100.00;100258.88;4982017;28;20042;-63
2023/09/19 01:20:06;;;;;;;2.90;1.23;;;;;;;20.08;100.00;100260.50;4982886;28;20030;-62
2023/09/19 01:22:46;;;;;;;3.15;0.77;;;;;;;20.09;100.00;100256.84;4984963;28;20058;-63
2023/09/19 01:25:41;;;;;;;7.25;1.13;;;;;;;20.10;100.00;100258.47;4983387;28;20034;-62
2023/09/19 01:28:21;;;;;;;2.83;1.17;;;;;;;20.11;100.00;100257.44;4987642;28;20113;-62
2023/09/19 01:30:50;;;;;;;2.95;1.17;;;;;;;20.11;100.00;100253.97;4987630;28;20070;-63
2023/09/19 01:33:16;;;;;;;1.42;0.85;;;;;;;20.12;100.00;100256.41;4986318;28;20498;-62
2023/09/19 01:35:42;;;;;;;2.20;0.90;;;;;;;20.13;100.00;100259.88;4987053;28;20054;-62
2023/09/19 01:38:11;;;;;;;2.58;0.93;;;;;;;20.13;100.00;100257.22;4989519;28;20101;-64
2023/09/19 01:40:47;;;;;;;3.25;0.88;;;;;;;20.12;100.00;100252.97;4987024;28;20034;-64
2023/09/19 01:43:31;;;;;;;4.22;1.05;;;;;;;20.12;100.00;100266.19;4987290;28;20038;-64
2023/09/19 01:46:05;;;;;;;9.13;1.33;;;;;;;20.11;100.00;100264.56;4986832;28;20085;-64
2023/09/19 01:48:47;;;;;;;1.95;1.15;;;;;;;20.11;100.00;100264.56;4985658;28;20033;-64
2023/09/19 01:51:19;;;;;;;3.45;1.30;;;;;;;20.02;100.00;100271.91;4989882;28;20045;-64
2023/09/19 01:53:56;;;;;;;4.82;1.23;;;;;;;19.98;100.00;100275.19;4986100;28;20054;-64
2023/09/19 01:56:59;;;;;;;8.02;1.40;;;;;;;19.96;100.00;100270.13;4986847;28;20042;-64
2023/09/19 01:59:28;;;;;;;1.05;0.60;;;;;;;19.99;100.00;100280.28;4981745;28;20125;-64
2023/09/19 02:01:56;;;;;;;6.13;1.05;;;;;;;20.00;100.00;100271.31;4988767;28;20054;-64
2023/09/19 02:04:21;;;;;;;1.52;0.60;;;;;;;20.01;100.00;100269.50;4988206;28;20054;-64
2023/09/19 02:06:47;;;;;;;3.42;0.90;;;;;;;20.00;100.00;100279.25;4988765;28;20030;-64
2023/09/19 02:09:14;;;;;;;4.60;1.10;;;;;;;20.02;100.00;100277.22;4988207;28;20030;-64
2023/09/19 02:11:40;;;;;;;3.47;1.15;;;;;;;20.00;100.00;100279.25;4989058;28;20480;-65
2023/09/19 02:14:08;;;;;;;0.90;0.57;;;;;;;20.02;100.00;100279.84;4988874;28;20041;-65
2023/09/19 02:16:34;;;;;;;2.22;0.88;;;;;;;20.00;100.00;100281.91;4986483;28;20085;-64
2023/09/19 02:19:00;;;;;;;2.22;0.80;;;;;;;19.99;100.00;100277.63;4992436;28;20062;-64
2023/09/19 02:21:29;;;;;;;2.10;0.77;;;;;;;19.95;100.00;100270.31;4984073;28;20139;-64
2023/09/19 02:23:55;;;;;;;5.20;1.15;;;;;;;19.98;100.00;100273.38;4985911;28;20042;-64
2023/09/19 02:26:20;;;;;;;1.95;1.17;;;;;;;19.98;100.00;100267.25;4986588;28;20027;-64
2023/09/19 02:28:46;;;;;;;2.33;0.95;;;;;;;19.97;100.00;100266.44;4986254;28;20219;-64
2023/09/19 02:31:11;;;;;;;3.60;1.27;;;;;;;19.98;100.00;100260.13;4985146;28;20148;-64
2023/09/19 02:33:37;;;;;;;2.10;0.63;;;;;;;20.01;100.00;100258.91;4986719;28;20140;-64
2023/09/19 02:36:03;;;;;;;2.45;0.90;;;;;;;20.02;100.00;100266.63;4987343;28;20030;-64
2023/09/19 02:38:29;;;;;;;2.53;1.38;;;;;;;20.02;100.00;100256.06;4985726;28;20843;-64
2023/09/19 02:40:55;;;;;;;3.03;1.15;;;;;;;20.04;100.00;100261.94;4986271;28;20025;-64
2023/09/19 02:43:21;;;;;;;5.50;1.20;;;;;;;20.05;100.00;100260.13;4990577;28;20038;-64
2023/09/19 02:45:49;;;;;;;3.63;0.98;;;;;;;20.05;100.00;100265.41;4989827;28;20400;-64
2023/09/19 02:48:15;;;;;;;4.32;1.40;;;;;;;20.05;100.00;100258.28;4981987;28;20105;-64
2023/09/19 02:50:41;;;;;;;4.38;1.13;;;;;;;20.06;100.00;100267.03;4986411;28;20409;-64
2023/09/19 02:53:07;;;;;;;6.82;0.95;;;;;;;20.04;100.00;100269.88;4984730;28;20500;-65
2023/09/19 02:55:33;;;;;;;3.42;0.60;;;;;;;20.00;100.00;100255.44;4987034;28;20034;-64
2023/09/19 02:58:00;;;;;;;2.08;1.00;;;;;;;19.98;100.00;100264.63;4988757;28;20392;-65
2023/09/19 03:00:27;;;;;;;3.03;0.88;;;;;;;19.90;100.00;100265.66;4984151;28;20038;-65
2023/09/19 03:02:55;;;;;;;1.80;0.50;;;;;;;19.85;100.00;100262.84;4988046;28;20503;-64
2023/09/19 03:05:26;;;;;;;3.83;0.95;;;;;;;19.78;100.00;100259.44;4989392;28;20038;-65
2023/09/19 03:07:51;;;;;;;2.20;0.95;;;;;;;19.76;100.00;100258.84;4983144;28;20030;-64
2023/09/19 03:10:18;;;;;;;5.60;0.90;;;;;;;19.78;100.00;100262.06;4985583;28;20373;-65
2023/09/19 03:12:44;;;;;;;9.63;1.33;;;;;;;19.78;100.00;100254.16;4988905;28;20413;-64
2023/09/19 03:15:10;;;;;;;5.10;1.00;;;;;;;19.78;100.00;100260.25;4988858;28;20061;-64
2023/09/19 03:17:36;;;;;;;3.05;1.10;;;;;;;19.78;100.00;100256.78;4982792;28;20049;-64
2023/09/19 03:20:04;;;;;;;5.03;0.77;;;;;;;19.76;100.00;100241.13;4987657;28;20038;-64
2023/09/19 03:22:29;;;;;;;5.03;1.05;;;;;;;19.75;100.00;100244.00;4985933;28;20046;-64
2023/09/19 03:24:55;;;;;;;5.65;1.35;;;;;;;19.76;100.00;100254.34;4984222;28;20025;-64
2023/09/19 03:27:20;;;;;;;6.07;1.58;;;;;;;19.72;100.00;100254.97;4984599;28;20468;-64
2023/09/19 03:29:49;;;;;;;2.85;0.90;;;;;;;19.67;100.00;100252.16;4985256;28;20050;-64
2023/09/19 03:32:15;;;;;;;4.97;1.10;;;;;;;19.65;100.00;100248.91;4981020;28;20053;-64
2023/09/19 03:34:42;;;;;;;1.70;0.88;;;;;;;19.62;100.00;100254.59;4979787;28;20492;-64
2023/09/19 03:37:08;;;;;;;2.47;0.98;;;;;;;19.57;100.00;100251.78;4985702;28;20034;-64
2023/09/19 03:39:33;;;;;;;2.63;0.95;;;;;;;19.52;100.00;100255.84;4980192;28;20045;-64
2023/09/19 03:41:59;;;;;;;6.20;1.48;;;;;;;19.53;100.00;100248.72;4986699;28;20029;-64
2023/09/19 03:44:24;;;;;;;7.88;1.55;;;;;;;19.57;100.00;100242.00;4984780;28;20034;-64
2023/09/19 03:46:50;;;;;;;4.10;1.58;;;;;;;19.54;100.00;100237.94;4985694;28;20043;-64
2023/09/19 03:49:15;;;;;;;7.80;1.10;;;;;;;19.60;100.00;100240.78;4986757;28;20042;-64
2023/09/19 03:51:41;;;;;;;2.47;0.70;;;;;;;19.61;100.00;100237.94;4986975;28;20052;-64
2023/09/19 03:54:07;;;;;;;2.80;0.82;;;;;;;19.56;100.00;100240.38;4984886;28;20392;-64
2023/09/19 03:56:33;;;;;;;3.05;1.13;;;;;;;19.53;100.00;100246.09;4976001;28;20077;-64
2023/09/19 03:58:59;;;;;;;3.72;1.13;;;;;;;19.53;100.00;100252.19;4983325;28;20618;-65
2023/09/19 04:01:24;;;;;;;2.17;0.80;;;;;;;19.51;100.00;100250.78;4985330;28;20088;-65
2023/09/19 04:03:51;;;;;;;1.92;0.82;;;;;;;19.50;100.00;100252.56;4986412;28;20031;-65
2023/09/19 04:06:17;;;;;;;4.40;1.00;;;;;;;19.50;100.00;100260.50;4984015;28;20046;-65
2023/09/19 04:08:44;;;;;;;2.47;0.52;;;;;;;19.51;100.00;100263.97;4980967;28;20035;-65
2023/09/19 04:11:10;;;;;;;3.47;0.75;;;;;;;19.55;100.00;100265.19;4981478;28;20030;-65
2023/09/19 04:13:36;;;;;;;5.03;1.38;;;;;;;19.55;100.00;100268.66;4978412;28;20045;-66
2023/09/19 04:16:03;;;;;;;1.58;0.65;;;;;;;19.57;100.00;100267.63;4979016;28;20042;-66
2023/09/19 04:18:31;;;;;;;3.00;1.02;;;;;;;19.58;100.00;100263.97;4982444;28;20042;-65
2023/09/19 04:20:56;;;;;;;5.80;1.20;;;;;;;19.59;100.00;100265.59;4985864;28;20065;-66
2023/09/19 04:23:21;;;;;;;1.83;0.65;;;;;;;19.58;100.00;100269.25;4983648;28;20078;-66
2023/09/19 04:25:48;;;;;;;6.22;1.25;;;;;;;19.62;100.00;100265.19;4982187;28;20453;-66
2023/09/19 04:28:13;;;;;;;2.72;1.23;;;;;;;19.63;100.00;100272.09;4982959;28;20086;-66
2023/09/19 04:30:41;;;;;;;3.92;1.30;;;;;;;19.63;100.00;100264.16;4985449;28;20432;-65
2023/09/19 04:33:07;;;;;;;4.05;0.85;;;;;;;19.64;100.00;100269.22;4983854;28;20053;-66
2023/09/19 04:35:33;;;;;;;4.68;0.88;;;;;;;19.67;100.00;100273.28;4978392;28;20109;-66
2023/09/19 04:37:59;;;;;;;3.35;1.17;;;;;;;19.67;100.00;100275.94;4984254;28;20053;-66
2023/09/19 04:40:26;;;;;;;2.55;0.70;;;;;;;19.64;100.00;100274.53;4988186;28;20026;-66
2023/09/19 04:42:58;;;;;;;3.95;0.75;;;;;;;19.60;100.00;100277.78;4987390;28;20034;-66
2023/09/19 04:45:24;;;;;;;1.50;0.60;;;;;;;19.54;100.00;100277.59;4984914;28;20070;-66
2023/09/19 04:47:50;;;;;;;5.38;0.80;;;;;;;19.52;100.00;100281.47;4986805;28;20038;-64
2023/09/19 04:50:16;;;;;;;3.13;0.90;;;;;;;19.47;100.00;100289.97;4989007;28;20038;-63
2023/09/19 04:52:44;;;;;;;3.15;0.90;;;;;;;19.45;100.00;100289.38;4985185;28;20044;-66
2023/09/19 04:55:19;;;;;;;2.97;1.20;;;;;;;19.45;100.00;100292.00;4988836;28;20042;-66
2023/09/19 04:57:46;;;;;;;3.72;1.42;;;;;;;19.50;100.00;100294.84;4993362;28;20038;-66
2023/09/19 05:00:16;;;;;;;1.45;0.90;;;;;;;19.51;100.00;100296.50;4989579;28;20634;-66
2023/09/19 05:02:42;;;;;;;3.03;0.90;;;;;;;19.52;100.00;100294.66;4989644;28;20030;-66
2023/09/19 05:05:10;;;;;;;3.53;1.23;;;;;;;19.54;100.00;100295.28;4990267;28;20153;-66
2023/09/19 05:07:36;;;;;;;5.72;1.20;;;;;;;19.53;100.00;100298.94;4990041;28;20030;-66
2023/09/19 05:10:05;;;;;;;2.67;1.27;;;;;;;19.52;100.00;100299.94;4990781;28;20038;-66
2023/09/19 05:12:32;;;;;;;2.75;1.40;;;;;;;19.54;100.00;100296.09;4990108;28;20031;-66
2023/09/19 05:14:57;;;;;;;5.85;1.63;;;;;;;19.50;100.00;100297.47;4989821;28;20121;-65
2023/09/19 05:17:24;;;;;;;4.65;1.42;;;;;;;19.47;100.00;100294.44;4986603;28;20121;-65
2023/09/19 05:19:50;;;;;;;6.05;1.40;;;;;;;19.42;100.00;100296.88;4991809;28;20096;-65
2023/09/19 05:22:15;;;;;;;5.78;0.95;;;;;;;19.41;100.00;100301.34;4988706;28;20042;-65
2023/09/19 05:24:40;;;;;;;4.97;1.50;;;;;;;19.41;100.00;100295.25;4985332;28;20472;-65
2023/09/19 05:27:07;;;;;;;3.55;1.38;;;;;;;19.41;100.00;100296.06;4989867;28;20481;-65
2023/09/19 05:29:33;;;;;;;5.03;1.38;;;;;;;19.42;100.00;100296.88;4988546;28;20038;-65
2023/09/19 05:31:59;;;;;;;3.80;1.23;;;;;;;19.46;100.00;100306.03;4995101;28;20042;-65
2023/09/19 05:34:28;;;;;;;2.63;0.80;;;;;;;19.47;100.00;100305.81;4990026;28;20104;-65
2023/09/19 05:36:54;;;;;;;5.07;0.80;;;;;;;19.46;100.00;100308.66;4991219;28;20080;-65
2023/09/19 05:39:20;;;;;;;2.42;0.98;;;;;;;19.42;100.00;100318.03;4990626;28;20050;-65
2023/09/19 05:41:47;;;;;;;3.33;1.08;;;;;;;19.39;100.00;100323.72;4990057;28;20034;-65
2023/09/19 05:44:14;;;;;;;2.70;1.02;;;;;;;19.38;100.00;100322.91;4989637;28;20018;-65
2023/09/19 05:46:39;;;;;;;3.75;1.02;;;;;;;19.34;100.00;100321.72;4986029;28;20412;-65
2023/09/19 05:49:05;;;;;;;3.40;1.13;;;;;;;19.32;100.00;100323.75;4991792;28;20030;-65
2023/09/19 05:51:30;;;;;;;3.33;1.00;;;;;;;19.31;100.00;100322.13;4989422;28;20046;-65
2023/09/19 05:53:56;;;;;;;1.40;0.85;;;;;;;19.31;100.00;100329.22;4990577;28;20120;-65
2023/09/19 05:56:22;;;;;;;6.13;1.10;;;;;;;19.30;100.00;100320.50;4990708;28;20381;-65
2023/09/19 05:58:47;;;;;;;4.28;1.30;;;;;;;19.34;100.00;100329.66;4991142;28;20066;-65
2023/09/19 06:01:13;;;;;;;3.42;1.15;;;;;;;19.39;100.00;100321.88;4989921;28;20503;-65
2023/09/19 06:03:38;;;;;;;5.20;1.15;;;;;;;19.36;100.00;100318.88;4986494;28;20041;-65
2023/09/19 06:06:06;;;;;;;5.45;0.95;;;;;;;19.36;100.00;100318.88;4989003;28;20045;-65
2023/09/19 06:08:33;;;;;;;3.35;0.88;;;;;;;19.40;100.00;100328.78;4987407;28;20105;-63
2023/09/19 06:10:59;;;;;;;2.78;1.23;;;;;;;19.45;100.00;100331.63;4988767;28;20040;-63
2023/09/19 06:13:26;;;;;;;7.80;0.98;;;;;;;19.49;100.00;100332.84;4989132;28;20121;-63
2023/09/19 06:15:52;;;;;;;4.05;1.00;;;;;;;19.54;100.00;100330.44;4989129;28;20081;-63
2023/09/19 06:18:19;;;;;;;2.70;0.73;;;;;;;19.63;100.00;100333.69;4988348;28;20026;-63
2023/09/19 06:20:48;;;;;;;3.08;1.00;;;;;;;19.69;100.00;100330.22;4987770;28;20036;-64
2023/09/19 06:23:14;;;;;;;3.58;1.38;;;;;;;19.72;100.00;100331.63;4990028;28;20444;-64
2023/09/19 06:25:40;;;;;;;7.35;1.10;;;;;;;19.73;100.00;100331.44;4986931;28;20038;-63
2023/09/19 06:28:08;;;;;;;6.05;1.08;;;;;;;19.77;100.00;100342.41;4978386;28;20396;-63
2023/09/19 06:30:34;;;;;;;2.30;0.70;;;;;;;19.83;100.00;100347.66;4980663;28;20037;-63
2023/09/19 06:33:00;;;;;;;3.13;1.13;;;;;;;19.88;100.00;100350.47;4984037;28;20105;-64
2023/09/19 06:35:26;;;;;;;2.65;1.02;;;;;;;19.95;100.00;100358.38;4987074;28;20602;-64
2023/09/19 06:37:52;;;;;;;5.15;0.80;;;;;;;20.02;100.00;100350.44;4988990;28;20467;-64
2023/09/19 06:40:19;;;;;;;8.32;1.05;;;;;;;20.08;100.00;100362.84;4978455;28;20030;-64
2023/09/19 06:42:50;;;;;;;10.75;0.70;;;;;;;20.11;100.00;100363.22;4986226;28;21503;-64
2023/09/19 06:45:19;;;;;;;2.25;0.50;;;;;;;20.21;100.00;100371.53;4989341;28;20026;-64
2023/09/19 06:47:50;;;;;;;4.05;1.10;;;;;;;20.29;100.00;100373.13;4983790;28;20038;-64
2023/09/19 06:50:22;;;;;;;3.13;0.60;;;;;;;20.34;100.00;100370.66;4986670;28;20483;-63
2023/09/19 06:52:50;;;;;;;10.93;1.27;;;;;;;20.41;100.00;100376.75;4986477;28;20034;-63
2023/09/19 06:55:16;;;;;;;4.40;0.88;;;;;;;20.50;100.00;100380.78;4987252;28;20117;-63
2023/09/19 06:57:44;;;;;;;4.28;1.15;;;;;;;20.61;100.00;100376.66;4987139;28;20504;-63
2023/09/19 07:00:21;;;;;;;3.78;0.73;;;;;;;20.76;100.00;100385.13;4985752;28;20038;-63
2023/09/19 07:03:12;;;;;;;4.93;0.68;;;;;;;20.74;100.00;100381.09;4986204;28;20050;-64
2023/09/19 07:05:39;;;;;;;3.78;0.90;;;;;;;20.88;100.00;100380.75;4985901;28;20022;-63
2023/09/19 07:08:06;;;;;;;4.97;0.73;;;;;;;20.98;100.00;100388.25;4982817;28;20970;-64
2023/09/19 07:10:33;;;;;;;3.67;0.75;;;;;;;20.98;100.00;100395.38;4982832;28;20053;-63
2023/09/19 07:13:08;;;;;;;8.15;1.02;;;;;;;20.93;100.00;100403.97;4984205;28;20038;-63
2023/09/19 07:15:38;;;;;;;5.13;0.73;;;;;;;21.00;100.00;100412.69;4985226;28;20041;-61
2023/09/19 07:18:05;;;;;;;2.83;0.60;;;;;;;20.95;100.00;100417.00;4984785;28;20049;-61
2023/09/19 07:20:32;;;;;;;3.78;0.90;;;;;;;20.98;100.00;100414.72;4987381;28;20038;-61
2023/09/19 07:23:00;;;;;;;6.15;0.63;;;;;;;21.14;100.00;100414.22;4983896;28;21445;-61
2023/09/19 07:25:29;;;;;;;4.32;0.63;;;;;;;21.25;100.00;100420.69;4987528;28;20167;-61
2023/09/19 07:27:59;;;;;;;2.15;0.63;;;;;;;21.39;100.00;100422.19;4990874;28;20042;-64
2023/09/19 07:30:26;;;;;;;7.03;1.02;;;;;;;21.57;100.00;100424.09;4987745;28;20507;-62
2023/09/19 07:32:52;;;;;;;6.22;0.73;;;;;;;21.68;100.00;100427.88;4989724;28;20516;-61
2023/09/19 07:35:19;;;;;;;5.15;0.93;;;;;;;21.70;100.00;100433.78;4986530;28;20042;-62
2023/09/19 07:37:49;;;;;;;3.30;0.93;;;;;;;21.82;100.00;100446.09;4984352;28;20041;-61
2023/09/19 07:40:17;;;;;;;2.45;0.60;;;;;;;21.82;100.00;100434.66;4985146;28;20155;-61
2023/09/19 07:42:44;;;;;;;3.13;0.70;;;;;;;21.83;100.00;100433.63;4982784;28;20057;-62
2023/09/19 07:45:14;;;;;;;6.00;1.10;;;;;;;21.91;100.00;100433.34;4984609;28;20034;-62
2023/09/19 07:47:43;;;;;;;6.93;1.00;;;;;;;21.95;100.00;100445.16;4984638;28;20038;-62
2023/09/19 07:50:09;;;;;;;5.28;1.02;;;;;;;21.96;100.00;100441.47;4981573;28;20033;-62
2023/09/19 07:52:35;;;;;;;3.20;0.70;;;;;;;22.04;100.00;100429.78;4988178;28;20106;-62
2023/09/19 07:55:01;;;;;;;7.93;0.82;;;;;;;22.11;100.00;100441.16;4983487;28;20080;-61
2023/09/19 07:57:28;;;;;;;6.05;0.60;;;;;;;22.05;100.00;100453.44;4985577;28;20045;-62
2023/09/19 07:59:53;;;;;;;5.82;0.80;;;;;;;21.94;100.00;100462.09;4985619;28;20035;-62
2023/09/19 08:02:19;;;;;;;7.00;0.95;;;;;;;21.88;100.00;100468.28;4980763;28;20042;-62
2023/09/19 08:04:45;;;;;;;6.53;1.10;;;;;;;21.77;100.00;100469.78;4984238;28;20065;-64
2023/09/19 08:07:11;;;;;;;5.57;0.60;;;;;;;21.61;100.00;100461.59;4992045;28;20069;-63
2023/09/19 08:09:38;;;;;;;8.65;0.70;;;;;;;21.47;100.00;100458.22;4998047;28;20089;-63
2023/09/19 08:12:04;;;;;;;5.18;0.60;;;;;;;21.40;100.00;100455.63;4989887;28;20057;-62
2023/09/19 08:14:30;;;;;;;6.03;1.02;;;;;;;21.32;100.00;100466.47;4991038;28;20468;-62
2023/09/19 08:16:58;;;;;;;6.97;1.05;;;;;;;21.28;100.00;100467.13;4994017;28;20046;-62
2023/09/19 08:19:28;;;;;;;9.63;1.13;;;;;;;21.29;100.00;100480.16;4992790;28;20074;-62
2023/09/19 08:21:58;;;;;;;4.82;0.85;;;;;;;21.32;100.00;100477.09;4993640;28;20050;-62
2023/09/19 08:24:27;;;;;;;3.70;0.50;;;;;;;21.36;100.00;100478.28;4993288;28;20038;-62
2023/09/19 08:26:54;;;;;;;4.15;0.90;;;;;;;21.36;100.00;100478.28;4992751;28;20042;-62
2023/09/19 08:29:19;;;;;;;5.57;1.10;;;;;;;21.35;100.00;100479.31;4992034;28;20042;-62
2023/09/19 08:31:47;;;;;;;7.40;0.93;;;;;;;21.34;100.00;100487.47;4993293;28;20034;-62
2023/09/19 08:34:13;;;;;;;2.42;0.88;;;;;;;21.39;100.00;100500.88;4993398;28;20030;-62
2023/09/19 08:36:41;;;;;;;5.53;0.70;;;;;;;21.39;100.00;100507.00;4994619;28;20034;-61
2023/09/19 08:39:06;;;;;;;5.78;1.25;;;;;;;21.37;100.00;100497.63;4994651;28;20050;-62
2023/09/19 08:41:32;;;;;;;6.38;0.90;;;;;;;21.35;100.00;100508.47;4995964;28;20034;-61
2023/09/19 08:44:03;;;;;;;6.82;0.70;;;;;;;21.29;100.00;100517.25;4992983;28;20030;-61
2023/09/19 08:46:34;;;;;;;4.82;0.90;;;;;;;21.23;100.00;100518.13;4992214;28;20476;-62
2023/09/19 08:49:13;;;;;;;3.83;0.70;;;;;;;21.12;100.00;100505.53;4993814;28;20094;-62
2023/09/19 08:51:50;;;;;;;3.03;0.65;;;;;;;20.93;100.00;100501.94;4995179;28;20465;-62
2023/09/19 08:54:27;;;;;;;6.50;0.90;;;;;;;20.88;100.00;100491.16;4994495;28;20081;-62
2023/09/19 08:56:54;;;;;;;2.25;0.50;;;;;;;20.90;100.00;100504.19;4993027;28;20034;-61
2023/09/19 08:59:24;;;;;;;3.28;1.00;;;;;;;20.85;100.00;100510.13;4993249;28;20034;-62
2023/09/19 09:01:53;;;;;;;4.35;1.60;;;;;;;20.78;100.00;100515.47;4992657;28;20034;-63
2023/09/19 09:04:20;;;;;;;9.07;0.73;;;;;;;20.64;100.00;100508.59;4989391;28;20034;-62
2023/09/19 09:06:49;;;;;;;3.90;0.98;;;;;;;20.56;100.00;100508.81;4993447;28;20092;-62
2023/09/19 09:09:15;;;;;;;4.38;0.80;;;;;;;20.51;100.00;100509.44;4992688;28;20037;-61
2023/09/19 09:11:41;;;;;;;2.83;1.15;;;;;;;20.52;100.00;100515.56;4993556;28;20038;-62
2023/09/19 09:14:09;;;;;;;3.15;0.90;;;;;;;20.55;100.00;100520.44;4993205;28;20031;-61
2023/09/19 09:16:35;;;;;;;3.17;1.15;;;;;;;20.58;100.00;100514.72;4992602;28;20027;-61
2023/09/19 09:19:01;;;;;;;2.97;0.93;;;;;;;20.70;100.00;100528.13;4992863;28;20435;-61
2023/09/19 09:21:28;;;;;;;5.68;0.95;;;;;;;20.80;100.00;100521.34;4990274;28;20026;-62
2023/09/19 09:23:54;;;;;;;6.38;1.52;;;;;;;20.86;100.00;100523.16;4994379;28;20040;-61
2023/09/19 09:26:42;;;;;;;5.47;1.17;;;;;;;20.76;100.00;100517.53;4992383;28;20467;-61
2023/09/19 09:29:08;;;;;;;1.88;0.63;;;;;;;20.47;100.00;100528.59;4990349;28;20074;-62
2023/09/19 09:31:33;;;;;;;0.68;0.20;;;;;;;20.03;100.00;100545.13;4991425;28;20066;-62
2023/09/19 09:33:59;;;;;;;1.65;0.30;;;;;;;19.67;100.00;100542.88;4988883;28;20373;-62
2023/09/19 09:36:54;;;;;;;1.55;0.20;;;;;;;19.35;100.00;100542.59;4992778;28;20474;-62
2023/09/19 09:39:32;;;;;;;0.52;0.10;;;;;;;19.26;100.00;100551.72;4994114;28;20385;-62
2023/09/19 09:41:59;;;;;;;1.02;0.10;;;;;;;19.26;100.00;100564.91;4993137;28;20478;-62
2023/09/19 09:44:24;;;;;;;0.65;0.17;;;;;;;19.23;100.00;100567.97;4987178;28;20034;-62
2023/09/19 09:49:32;;;;;;;3.90;0.55;;;;;;;19.06;100.00;100569.31;4992066;28;20041;-62
2023/09/19 09:52:00;;;;;;;0.52;0.10;;;;;;;18.68;100.00;100571.56;4993335;28;20121;-62
2023/09/19 09:54:34;;;;;;;3.03;0.10;;;;;;;18.44;100.00;100581.53;4992231;28;20558;-62
2023/09/19 09:57:23;;;;;;;0.95;0.10;;;;;;;18.24;100.00;100581.41;4993200;28;20618;-63
2023/09/19 09:59:53;;;;;;;0.75;0.10;;;;;;;18.02;100.00;100587.72;4996248;28;20045;-63
2023/09/19 10:02:29;;;;;;;3.13;0.10;;;;;;;17.83;100.00;100593.66;4989760;28;20049;-63
2023/09/19 10:07:32;;;;;;;0.93;0.10;;;;;;;17.67;100.00;100580.72;4991773;28;20049;-63
2023/09/19 10:10:28;;;;;;;1.77;0.20;;;;;;;17.86;100.00;100585.34;4993039;28;20084;-62
2023/09/19 10:12:56;;;;;;;0.63;0.10;;;;;;;17.74;100.00;100587.69;4992504;28;20053;-63
2023/09/19 10:15:26;;;;;;;0.45;0.10;;;;;;;17.54;100.00;100586.63;4993318;28;20080;-62
2023/09/19 10:17:56;;;;;;;0.60;0.10;;;;;;;17.45;100.00;100580.69;4992173;28;20241;-63
2023/09/19 10:20:33;;;;;;;0.40;0.10;;;;;;;17.46;100.00;100574.41;4991752;28;20101;-62
2023/09/19 10:23:09;;;;;;;0.90;0.10;;;;;;;17.43;100.00;100571.31;4992315;28;20105;-63
2023/09/19 10:25:37;;;;;;;1.85;0.10;;;;;;;17.40;100.00;100561.97;4989487;28;20026;-62
2023/09/19 10:28:04;;;;;;;2.28;0.10;;;;;;;17.46;100.00;100577.03;4991715;28;20105;-62
2023/09/19 10:30:34;;;;;;;0.35;0.10;;;;;;;17.59;100.00;100577.16;4991554;28;20041;-62
2023/09/19 10:33:05;;;;;;;2.10;0.10;;;;;;;17.57;100.00;100579.16;4991945;28;20041;-62
2023/09/19 10:35:32;;;;;;;2.25;0.15;;;;;;;17.67;100.00;100575.44;4991568;28;20034;-62
2023/09/19 10:38:01;;;;;;;0.63;0.10;;;;;;;17.58;100.00;100575.53;4991018;28;20042;-62
2023/09/19 10:40:30;;;;;;;1.75;0.10;;;;;;;17.63;100.00;100567.06;4991376;28;20034;-62
2023/09/19 10:43:04;;;;;;;2.38;0.20;;;;;;;17.79;100.00;100568.66;4991558;28;20046;-62
2023/09/19 10:45:32;;;;;;;0.17;0.08;;;;;;;17.94;100.00;100564.16;4989537;28;20033;-61
2023/09/19 10:47:58;;;;;;;0.75;0.08;;;;;;;18.06;100.00;100570.50;4991914;28;20038;-62
2023/09/19 10:50:25;;;;;;;0.75;0.10;;;;;;;18.02;100.00;100566.63;4990894;28;20132;-62
2023/09/19 10:52:58;;;;;;;1.83;0.10;;;;;;;18.14;100.00;100564.28;4991687;28;20073;-62
2023/09/19 10:55:27;;;;;;;0.57;0.10;;;;;;;18.17;100.00;100556.81;4991059;28;20030;-61
2023/09/19 10:57:53;;;;;;;0.90;0.05;;;;;;;18.30;100.00;100557.91;4991567;28;20035;-61
2023/09/19 11:00:28;;;;;;;1.02;0.10;;;;;;;18.26;100.00;100556.66;4990948;28;20030;-62
2023/09/19 11:03:12;;;;;;;0.73;0.10;;;;;;;18.17;100.00;100548.91;4991757;28;20034;-61
2023/09/19 11:05:41;;;;;;;2.00;0.15;;;;;;;18.27;100.00;100550.38;4989773;28;20030;-61
2023/09/19 11:08:08;;;;;;;0.90;0.10;;;;;;;18.49;100.00;100550.13;4991226;28;20038;-61
2023/09/19 11:10:50;;;;;;;0.30;0.10;;;;;;;18.63;100.00;100545.75;4988686;28;20030;-61
2023/09/19 11:13:34;;;;;;;0.68;0.00;;;;;;;18.68;100.00;100538.09;4988748;28;20042;-61
2023/09/19 11:16:03;;;;;;;0.30;0.00;;;;;;;18.76;100.00;100537.09;4986610;28;20034;-61
2023/09/19 11:18:40;;;;;;;1.10;0.10;;;;;;;18.70;100.00;100533.44;4990525;28;20030;-61
2023/09/19 11:21:31;;;;;;;1.38;0.10;;;;;;;18.80;100.00;100530.44;4991405;28;20061;-61
2023/09/19 11:24:19;;;;;;;0.55;0.10;;;;;;;18.87;100.00;100541.84;4985318;28;20515;-61
2023/09/19 11:26:48;;;;;;;2.72;1.02;;;;;;;19.04;100.00;100537.81;4991352;28;20137;-62
2023/09/19 11:29:31;;;;;;;0.50;0.10;;;;;;;19.18;100.00;100538.69;4991344;28;20062;-61